Time;durP1;ratioP1;P1;durP2;ratioP2;P2;SDS_P1;SDS_P2;PMS_P1;PMS_P2;Temp;Humidity;BMP_temperature;BMP_pressure;BME280_temperature;BME280_humidity;BME280_pressure;Samples;Min_cycle;Max_cycle;Signal;HPM_P1;HPM_P2
2023/05/29 00:01:21;;;;;;;13.67;3.10;;;;;;;9.23;100.00;101596.97;5027220;28;20029;-76
2023/05/29 00:03:46;;;;;;;15.77;3.28;;;;;;;9.29;100.00;101606.25;5030731;28;20044;-76
2023/05/29 00:06:13;;;;;;;23.88;4.50;;;;;;;9.19;100.00;101595.53;5026453;28;20488;-76
2023/05/29 00:08:38;;;;;;;;;;;;;;;9.29;100.00;101612.44;5030904;28;20041;-76
2023/05/29 00:11:04;;;;;;;;;;;;;;;9.28;100.00;101616.06;5041726;28;19971;-76
2023/05/29 00:13:29;;;;;;;13.77;3.27;;;;;;;9.17;100.00;101586.00;5026611;28;20002;-76
2023/05/29 00:15:55;;;;;;;16.03;2.80;;;;;;;9.22;100.00;101597.09;5026208;28;20033;-76
2023/05/29 00:18:20;;;;;;;17.60;4.13;;;;;;;9.12;100.00;101604.22;5023433;28;20475;-76
2023/05/29 00:20:46;;;;;;;15.37;3.03;;;;;;;9.12;100.00;101621.03;5024834;28;20544;-76
2023/05/29 00:23:11;;;;;;;14.93;3.40;;;;;;;9.05;100.00;101625.19;5024774;28;20025;-76
2023/05/29 00:25:37;;;;;;;14.00;2.83;;;;;;;8.91;100.00;101628.19;5026497;28;20098;-76
2023/05/29 00:28:02;;;;;;;20.67;3.15;;;;;;;8.92;100.00;101651.16;5032811;28;20040;-75
2023/05/29 00:30:28;;;;;;;16.70;2.73;;;;;;;8.98;100.00;101661.31;5030694;28;20514;-75
2023/05/29 00:32:53;;;;;;;18.83;3.50;;;;;;;8.95;100.00;101656.25;5040898;28;20036;-76
2023/05/29 00:35:19;;;;;;;14.85;3.67;;;;;;;8.81;100.00;101636.97;5030544;28;20066;-76
2023/05/29 00:37:45;;;;;;;18.27;3.22;;;;;;;8.83;100.00;101658.97;5034493;28;20037;-76
2023/05/29 00:40:11;;;;;;;20.83;3.57;;;;;;;8.77;100.00;101648.00;5046802;28;20040;-75
2023/05/29 00:42:36;;;;;;;18.10;4.05;;;;;;;8.68;100.00;101660.25;5046593;28;20541;-76
2023/05/29 00:45:02;;;;;;;14.80;4.07;;;;;;;8.66;100.00;101680.81;5040902;28;20393;-76
2023/05/29 00:47:27;;;;;;;21.90;2.80;;;;;;;8.62;100.00;101688.25;5030736;28;20048;-74
2023/05/29 00:49:55;;;;;;;15.65;2.72;;;;;;;8.61;100.00;101675.03;5029831;28;20033;-75
2023/05/29 00:52:20;;;;;;;14.60;4.20;;;;;;;8.61;100.00;101664.41;5029970;28;20028;-76
2023/05/29 00:54:46;;;;;;;24.00;3.55;;;;;;;8.55;100.00;101676.41;5028967;28;20029;-75
2023/05/29 00:57:13;;;;;;;11.45;2.85;;;;;;;8.51;100.00;101687.44;5030204;28;20032;-76
2023/05/29 00:59:40;;;;;;;18.35;3.30;;;;;;;8.53;100.00;101693.47;5027979;28;20076;-76
2023/05/29 01:02:06;;;;;;;19.33;2.88;;;;;;;8.52;100.00;101691.78;5044934;28;20013;-74
2023/05/29 01:04:34;;;;;;;16.70;3.38;;;;;;;8.60;100.00;101700.81;5026927;28;20243;-76
2023/05/29 01:07:03;;;;;;;13.93;3.05;;;;;;;8.60;100.00;101694.66;5040556;28;20064;-75
2023/05/29 01:09:30;;;;;;;16.92;2.95;;;;;;;8.60;100.00;101689.34;5028800;28;20541;-76
2023/05/29 01:12:38;;;;;;;19.45;4.95;;;;;;;8.57;100.00;101689.56;5027119;28;20475;-76
2023/05/29 01:15:11;;;;;;;13.48;3.50;;;;;;;8.65;100.00;101697.78;5024725;28;20503;-76
2023/05/29 01:18:04;;;;;;;13.27;3.72;;;;;;;8.58;100.00;101685.94;5022552;28;20080;-76
2023/05/29 01:20:48;;;;;;;17.50;4.13;;;;;;;8.47;100.00;101681.50;5042206;28;20110;-76
2023/05/29 01:23:44;;;;;;;24.65;3.42;;;;;;;8.37;100.00;101676.06;5029541;28;20032;-75
2023/05/29 01:26:25;;;;;;;18.52;3.28;;;;;;;8.37;100.00;101696.50;5022195;28;20033;-76
2023/05/29 01:28:54;;;;;;;25.38;3.38;;;;;;;8.38;100.00;101699.06;5012425;28;20399;-76
2023/05/29 01:31:23;;;;;;;15.48;2.95;;;;;;;8.34;100.00;101681.63;5029588;28;20025;-76
2023/05/29 01:33:54;;;;;;;21.48;3.28;;;;;;;8.22;100.00;101683.47;5028513;28;20039;-75
2023/05/29 01:36:20;;;;;;;18.48;4.10;;;;;;;8.13;100.00;101689.53;5029395;28;20040;-76
2023/05/29 01:38:47;;;;;;;16.40;2.88;;;;;;;8.12;100.00;101700.28;5028144;28;20032;-76
2023/05/29 01:41:12;;;;;;;19.60;3.17;;;;;;;8.14;100.00;101719.66;5026402;28;20907;-76
2023/05/29 01:43:38;;;;;;;24.70;3.73;;;;;;;8.16;100.00;101715.88;5026766;28;20021;-75
2023/05/29 01:46:03;;;;;;;16.20;2.75;;;;;;;8.16;100.00;101726.53;5033902;28;20037;-76
2023/05/29 01:48:30;;;;;;;30.83;4.80;;;;;;;8.08;100.00;101701.50;5045768;28;20033;-75
2023/05/29 01:50:57;;;;;;;16.38;3.05;;;;;;;7.94;100.00;101694.66;5044377;28;20086;-75
2023/05/29 01:53:23;;;;;;;15.95;3.20;;;;;;;7.95;100.00;101694.50;5018880;28;20029;-76
2023/05/29 01:55:50;;;;;;;21.93;3.60;;;;;;;7.82;100.00;101699.97;5032099;28;20040;-76
2023/05/29 01:58:18;;;;;;;30.17;4.93;;;;;;;7.76;100.00;101712.91;5029191;28;20040;-76
2023/05/29 02:00:43;;;;;;;25.45;4.75;;;;;;;7.72;100.00;101711.44;5031035;28;20072;-76
2023/05/29 02:03:09;;;;;;;21.38;5.03;;;;;;;7.81;100.00;101714.22;5028824;28;20119;-75
2023/05/29 02:05:34;;;;;;;19.17;3.53;;;;;;;7.66;100.00;101688.03;5025999;28;20073;-76
2023/05/29 02:07:59;;;;;;;16.77;4.20;;;;;;;7.74;100.00;101706.84;5026677;28;20037;-76
2023/05/29 02:10:25;;;;;;;18.37;4.03;;;;;;;7.56;100.00;101694.06;5046163;28;20029;-76
2023/05/29 02:12:50;;;;;;;23.03;4.00;;;;;;;7.67;100.00;101709.13;5027933;28;20032;-76
2023/05/29 02:15:16;;;;;;;17.33;3.70;;;;;;;7.59;100.00;101675.19;5025341;28;20055;-76
2023/05/29 02:17:41;;;;;;;21.33;4.30;;;;;;;7.65;100.00;101679.19;5026557;28;20021;-76
2023/05/29 02:20:07;;;;;;;18.57;4.03;;;;;;;7.68;100.00;101670.09;5043464;28;20515;-76
2023/05/29 02:22:32;;;;;;;17.50;4.28;;;;;;;7.66;100.00;101682.69;5029343;28;20021;-76
2023/05/29 02:25:01;;;;;;;17.60;4.90;;;;;;;7.58;100.00;101678.81;5029318;28;20037;-75
2023/05/29 02:27:26;;;;;;;20.95;3.95;;;;;;;7.49;100.00;101676.03;5047348;28;20627;-76
2023/05/29 02:29:52;;;;;;;29.43;4.13;;;;;;;7.28;100.00;101674.09;5047287;28;20037;-76
2023/05/29 02:32:17;;;;;;;30.60;5.87;;;;;;;7.28;100.00;101700.66;5029284;28;20032;-75
2023/05/29 02:34:42;;;;;;;18.97;3.90;;;;;;;7.24;100.00;101704.50;5042035;28;20509;-76
2023/05/29 02:37:08;;;;;;;21.27;4.07;;;;;;;7.10;100.00;101702.06;5029336;28;20447;-76
2023/05/29 02:39:33;;;;;;;20.30;4.60;;;;;;;7.16;100.00;101718.38;5029420;28;20450;-75
2023/05/29 02:41:58;;;;;;;18.40;3.30;;;;;;;7.19;100.00;101712.81;5029033;28;20037;-76
2023/05/29 02:44:24;;;;;;;18.27;3.97;;;;;;;7.21;100.00;101706.53;5028857;28;20035;-76
2023/05/29 02:46:50;;;;;;;23.75;4.65;;;;;;;7.15;100.00;101690.09;5029411;28;20266;-76
2023/05/29 02:49:15;;;;;;;21.10;4.77;;;;;;;7.06;100.00;101688.16;5035791;28;20030;-76
2023/05/29 02:51:41;;;;;;;19.43;4.50;;;;;;;6.96;100.00;101695.13;5028406;28;20090;-76
2023/05/29 02:54:06;;;;;;;19.17;4.13;;;;;;;7.04;100.00;101703.34;5035873;28;20658;-76
2023/05/29 02:56:31;;;;;;;21.30;3.97;;;;;;;7.19;100.00;101701.34;5029135;28;20919;-76
2023/05/29 02:58:57;;;;;;;18.67;4.47;;;;;;;7.18;100.00;101684.56;5042853;28;20037;-76
2023/05/29 03:01:22;;;;;;;25.73;5.73;;;;;;;7.07;100.00;101665.09;5029260;28;20443;-75
2023/05/29 03:03:48;;;;;;;18.73;4.63;;;;;;;6.96;100.00;101674.72;5028734;28;20430;-76
2023/05/29 03:06:13;;;;;;;24.43;6.77;;;;;;;7.05;100.00;101688.28;5028662;28;20700;-76
2023/05/29 03:08:44;;;;;;;26.73;5.15;;;;;;;7.01;100.00;101677.03;5028789;28;20116;-76
2023/05/29 03:11:11;;;;;;;22.13;4.57;;;;;;;6.97;100.00;101686.19;5028706;28;20043;-76
2023/05/29 03:13:37;;;;;;;26.45;4.45;;;;;;;6.98;100.00;101704.66;5046246;28;20112;-76
2023/05/29 03:16:05;;;;;;;26.70;4.97;;;;;;;7.07;100.00;101694.31;5012225;28;20037;-76
2023/05/29 03:18:31;;;;;;;16.33;4.10;;;;;;;7.11;100.00;101693.13;5028729;28;20029;-76
2023/05/29 03:20:57;;;;;;;;;;;;;;;6.98;100.00;101661.34;5037519;28;20049;-76
2023/05/29 03:23:24;;;;;;;28.25;4.18;;;;;;;6.87;100.00;101670.13;5028322;28;19936;-76
2023/05/29 03:25:49;;;;;;;22.60;5.10;;;;;;;6.80;100.00;101678.66;5040214;28;20029;-76
2023/05/29 03:28:16;;;;;;;27.10;5.13;;;;;;;6.86;100.00;101688.81;5019831;28;20021;-76
2023/05/29 03:30:41;;;;;;;20.77;4.13;;;;;;;7.00;100.00;101685.97;5036920;28;20646;-76
2023/05/29 03:33:07;;;;;;;29.42;4.25;;;;;;;6.92;100.00;101645.88;5028184;28;20025;-75
2023/05/29 03:35:56;;;;;;;17.08;4.07;;;;;;;6.92;100.00;101630.78;5037614;28;20098;-76
2023/05/29 03:38:22;;;;;;;25.83;4.18;;;;;;;7.02;100.00;101641.53;5015349;28;20041;-76
2023/05/29 03:40:48;;;;;;;16.35;3.95;;;;;;;7.05;100.00;101645.81;5025977;28;20128;-76
2023/05/29 03:43:14;;;;;;;21.60;4.32;;;;;;;7.05;100.00;101640.50;5027839;28;20054;-76
2023/05/29 03:45:40;;;;;;;18.40;3.30;;;;;;;7.07;100.00;101643.84;5027696;28;20112;-76
2023/05/29 03:48:06;;;;;;;24.75;3.92;;;;;;;7.12;100.00;101642.56;5035992;28;20029;-75
2023/05/29 03:50:31;;;;;;;24.88;4.35;;;;;;;6.99;100.00;101639.13;5028028;28;20017;-76
2023/05/29 03:52:57;;;;;;;33.20;4.33;;;;;;;7.04;100.00;101658.22;5017336;28;20037;-75
2023/05/29 03:55:22;;;;;;;20.50;4.20;;;;;;;7.03;100.00;101651.22;5027902;28;20539;-75
2023/05/29 03:57:48;;;;;;;23.20;3.97;;;;;;;7.05;100.00;101661.75;5012931;28;20652;-75
2023/05/29 04:00:14;;;;;;;15.13;3.58;;;;;;;7.16;100.00;101675.88;5027727;28;20024;-76
2023/05/29 04:02:41;;;;;;;28.15;5.07;;;;;;;7.15;100.00;101663.56;5027948;28;20033;-76
2023/05/29 04:05:07;;;;;;;26.75;3.33;;;;;;;7.26;100.00;101648.59;5017300;28;20087;-76
2023/05/29 04:07:33;;;;;;;22.85;5.22;;;;;;;7.22;100.00;101631.22;5027769;28;20547;-76
2023/05/29 04:09:59;;;;;;;29.77;4.70;;;;;;;7.33;100.00;101628.56;5027666;28;20078;-76
2023/05/29 04:12:24;;;;;;;30.02;4.70;;;;;;;7.38;100.00;101621.09;5027656;28;20029;-76
2023/05/29 04:14:49;;;;;;;15.30;2.73;;;;;;;7.29;100.00;101588.13;5027210;28;20116;-76
2023/05/29 04:17:15;;;;;;;19.30;3.30;;;;;;;7.47;100.00;101604.44;5027583;28;20029;-76
2023/05/29 04:19:45;;;;;;;28.20;5.10;;;;;;;7.42;100.00;101584.47;5027645;28;20816;-76
2023/05/29 04:22:10;;;;;;;20.30;3.42;;;;;;;7.59;100.00;101590.16;5019639;28;20755;-76
2023/05/29 04:24:36;;;;;;;39.00;4.93;;;;;;;7.70;100.00;101589.31;5027715;28;20028;-76
2023/05/29 04:27:01;;;;;;;28.53;5.37;;;;;;;7.65;100.00;101575.53;5045773;28;20514;-76
2023/05/29 04:29:29;;;;;;;17.13;3.97;;;;;;;7.80;100.00;101568.16;5027667;28;20081;-75
2023/05/29 04:31:55;;;;;;;21.42;4.50;;;;;;;7.89;100.00;101551.44;5026787;28;20040;-75
2023/05/29 04:34:21;;;;;;;27.83;4.03;;;;;;;7.92;100.00;101543.22;5026841;28;20017;-75
2023/05/29 04:36:47;;;;;;;;;;;;;;;8.13;100.00;101542.41;5027759;28;20102;-76
2023/05/29 04:39:12;;;;;;;;;;;;;;;8.15;100.00;101512.06;5027801;28;19924;-75
2023/05/29 04:41:40;;;;;;;22.40;4.13;;;;;;;8.07;100.00;101487.06;5040029;28;19917;-76
2023/05/29 04:44:11;;;;;;;22.77;4.05;;;;;;;8.18;100.00;101479.03;5026965;28;20562;-76
2023/05/29 04:46:44;;;;;;;22.67;5.32;;;;;;;8.33;100.00;101471.56;5029527;28;20117;-75
2023/05/29 04:49:12;;;;;;;20.83;4.45;;;;;;;8.38;100.00;101432.09;5040496;28;20037;-76
2023/05/29 04:51:40;;;;;;;19.20;5.10;;;;;;;8.47;100.00;101443.81;5023456;28;20431;-76
2023/05/29 04:54:06;;;;;;;40.30;5.75;;;;;;;8.66;100.00;101462.53;5035028;28;20021;-76
2023/05/29 04:56:32;;;;;;;;;;;;;;;8.90;100.00;101450.72;5027767;28;20478;-76
2023/05/29 04:58:58;;;;;;;;;;;;;;;8.84;100.00;101405.03;5011076;28;19921;-76
2023/05/29 05:01:25;;;;;;;23.55;5.38;;;;;;;8.80;100.00;101382.34;5018936;28;19958;-76
2023/05/29 05:03:52;;;;;;;29.40;4.53;;;;;;;8.91;100.00;101394.69;5027052;28;20068;-76
2023/05/29 05:06:18;;;;;;;15.43;4.00;;;;;;;8.84;100.00;101378.41;5036562;28;20092;-76
2023/05/29 05:08:43;;;;;;;;;;;;;;;8.84;100.00;101391.72;5027572;28;20029;-76
2023/05/29 05:11:09;;;;;;;;;;;;;;;9.12;100.00;101413.25;5027784;28;19966;-76
2023/05/29 05:13:34;;;;;;;32.47;4.73;;;;;;;9.40;100.00;101406.28;5027252;28;19913;-76
2023/05/29 05:16:00;;;;;;;22.80;4.40;;;;;;;9.78;100.00;101404.59;5014230;28;20029;-76
2023/05/29 05:18:27;;;;;;;16.17;3.70;;;;;;;9.64;100.00;101269.06;5016520;28;20867;-76
2023/05/29 05:21:02;;;;;;;20.05;4.40;;;;;;;9.91;100.00;101286.97;5029340;28;20025;-76
2023/05/29 05:23:28;;;;;;;25.23;4.47;;;;;;;10.09;100.00;101253.22;5013197;28;20036;-76
2023/05/29 05:25:53;;;;;;;19.13;3.83;;;;;;;10.64;100.00;101257.72;5025267;28;20033;-77
2023/05/29 05:28:19;;;;;;;22.43;5.37;;;;;;;11.23;100.00;101252.75;5034995;28;20037;-76
2023/05/29 05:30:44;;;;;;;19.77;4.27;;;;;;;12.04;100.00;101113.34;5029014;28;20044;-76
2023/05/29 05:33:10;;;;;;;22.95;3.95;;;;;;;12.08;100.00;100797.22;5016596;28;20128;-76
2023/05/29 05:35:37;;;;;;;;;;;;;;;12.82;100.00;100828.06;5029870;28;20577;-77
2023/05/29 05:38:02;;;;;;;;;;;;;;;12.54;100.00;100575.97;5017781;28;20015;-75
2023/05/29 05:40:28;;;;;;;19.30;4.32;;;;;;;13.66;100.00;100738.84;5025436;28;19957;-76
2023/05/29 05:43:02;;;;;;;18.58;3.97;;;;;;;14.85;100.00;100556.00;5044801;28;20065;-75
2023/05/29 05:45:53;;;;;;;23.52;5.07;;;;;;;14.78;94.89;100212.81;5032279;28;20025;-76
2023/05/29 05:48:19;;;;;;;19.30;4.25;;;;;;;15.29;90.42;100119.16;5025849;28;20116;-77
2023/05/29 05:50:45;;;;;;;16.98;3.80;;;;;;;14.77;90.13;100116.28;5026828;28;20615;-76
2023/05/29 05:53:10;;;;;;;20.17;6.27;;;;;;;15.93;88.50;100306.88;5034541;28;20102;-76
2023/05/29 05:55:36;;;;;;;24.98;4.28;;;;;;;16.16;84.23;100127.88;5029820;28;20100;-77
2023/05/29 05:58:02;;;;;;;17.20;4.35;;;;;;;15.58;81.45;99873.88;5020913;28;20172;-75
2023/05/29 06:00:29;;;;;;;17.08;4.20;;;;;;;15.80;82.02;100078.09;5029858;28;20047;-76
2023/05/29 06:02:56;;;;;;;17.58;4.75;;;;;;;15.84;80.55;100057.78;5034358;28;20032;-77
2023/05/29 06:05:57;;;;;;;16.05;4.07;;;;;;;15.35;81.04;100143.38;4946573;28;21043;-76
2023/05/29 06:08:23;;;;;;;16.73;3.53;;;;;;;15.56;81.15;100231.09;4947020;29;20146;-75
2023/05/29 06:10:50;;;;;;;23.90;4.63;;;;;;;15.79;79.47;100174.16;4948149;28;20158;-77
2023/05/29 06:13:16;;;;;;;17.77;3.37;;;;;;;15.48;77.79;100012.59;4966575;28;20089;-76
2023/05/29 06:15:47;;;;;;;21.73;4.68;;;;;;;15.87;78.37;100240.41;4965949;28;20042;-75
2023/05/29 06:18:13;;;;;;;23.90;4.50;;;;;;;15.85;77.42;100159.06;4966083;28;20543;-75
2023/05/29 06:20:38;;;;;;;25.13;4.63;;;;;;;15.46;79.48;100362.50;4963135;28;20035;-76
2023/05/29 06:23:04;;;;;;;20.50;4.28;;;;;;;15.74;76.95;100157.00;4932184;28;20045;-76
2023/05/29 06:25:33;;;;;;;18.33;4.57;;;;;;;15.50;77.95;100274.97;4948669;28;20126;-76
2023/05/29 06:28:00;;;;;;;21.48;4.50;;;;;;;14.23;78.46;100069.66;4954306;28;20062;-76
2023/05/29 06:30:25;;;;;;;21.67;4.63;;;;;;;15.32;79.92;100571.41;4949853;28;20030;-76
2023/05/29 06:32:51;;;;;;;20.88;5.68;;;;;;;16.03;76.07;100320.72;4943884;28;20043;-77
2023/05/29 06:35:16;;;;;;;21.03;4.17;;;;;;;15.77;75.21;100180.78;4935886;28;20035;-76
2023/05/29 06:37:42;;;;;;;23.48;4.18;;;;;;;15.72;74.28;100119.53;4944695;28;20545;-75
2023/05/29 06:40:08;;;;;;;22.67;4.07;;;;;;;14.94;73.97;99939.31;5004840;28;20106;-75
2023/05/29 06:42:33;;;;;;;26.42;4.78;;;;;;;15.10;74.85;100171.91;5029343;28;20029;-77
2023/05/29 06:44:59;;;;;;;24.67;5.13;;;;;;;15.35;75.17;100301.22;5027855;28;20546;-77
2023/05/29 06:47:24;;;;;;;11.95;3.45;;;;;;;15.40;75.29;100388.38;5028458;28;20037;-77
2023/05/29 06:49:50;;;;;;;17.10;4.47;;;;;;;15.54;73.57;100198.19;5029784;28;20032;-76
2023/05/29 06:52:15;;;;;;;18.10;4.27;;;;;;;15.28;74.14;100292.31;5042277;28;20029;-77
2023/05/29 06:55:07;;;;;;;19.15;3.97;;;;;;;15.41;73.65;100257.38;5028989;28;20032;-77
2023/05/29 06:57:33;;;;;;;24.95;4.13;;;;;;;14.44;76.36;100363.28;5029792;28;20064;-76
2023/05/29 06:59:58;;;;;;;20.67;3.77;;;;;;;15.03;76.00;100499.91;5040045;28;20068;-75
2023/05/29 07:02:24;;;;;;;23.27;5.85;;;;;;;16.20;75.24;100725.16;5026878;28;20125;-77
2023/05/29 07:04:54;;;;;;;13.20;3.53;;;;;;;16.12;73.32;100422.84;5028047;28;20114;-77
2023/05/29 07:07:23;;;;;;;24.03;5.77;;;;;;;15.40;72.39;100113.16;5026802;28;20025;-77
2023/05/29 07:09:48;;;;;;;22.15;4.70;;;;;;;15.02;73.16;100202.50;5026953;28;20016;-78
2023/05/29 07:12:14;;;;;;;22.02;4.50;;;;;;;16.42;73.43;100612.69;5007920;28;20031;-77
2023/05/29 07:14:39;;;;;;;17.13;4.37;;;;;;;17.21;71.82;100596.78;5024726;28;20037;-78
2023/05/29 07:17:06;;;;;;;15.20;4.10;;;;;;;16.98;69.59;100304.13;5033926;28;20597;-78
2023/05/29 07:19:34;;;;;;;17.55;4.47;;;;;;;16.56;68.42;100090.75;5027640;28;20029;-78
2023/05/29 07:22:01;;;;;;;15.50;3.92;;;;;;;16.43;68.73;100123.97;5031893;28;20108;-78
2023/05/29 07:24:26;;;;;;;22.50;5.40;;;;;;;16.30;69.07;100112.47;5026430;28;20013;-78
2023/05/29 07:26:52;;;;;;;18.63;4.20;;;;;;;15.66;69.20;100018.09;5026880;28;20044;-78
2023/05/29 07:29:20;;;;;;;20.47;3.87;;;;;;;15.37;72.28;100420.19;5027492;28;20365;-78
2023/05/29 07:31:46;;;;;;;18.13;4.28;;;;;;;15.95;70.48;100372.09;5026628;28;20037;-78
2023/05/29 07:34:11;;;;;;;25.20;4.03;;;;;;;15.54;69.51;100125.53;5026745;28;20031;-78
2023/05/29 07:37:04;;;;;;;17.77;4.30;;;;;;;16.59;70.46;100579.97;5039200;28;20041;-79
2023/05/29 07:39:33;;;;;;;15.47;3.30;;;;;;;15.93;68.78;100128.38;5027037;28;20139;-78
2023/05/29 07:42:03;;;;;;;18.75;3.78;;;;;;;16.02;69.02;100230.22;5016845;28;20468;-77
2023/05/29 07:44:31;;;;;;;21.92;4.45;;;;;;;15.88;69.49;100268.97;5026976;28;20021;-77
2023/05/29 07:46:57;;;;;;;20.75;4.85;;;;;;;16.03;70.68;100424.91;5026151;28;20033;-78
2023/05/29 07:49:48;;;;;;;16.85;3.42;;;;;;;15.82;70.28;100374.78;5029052;28;20083;-78
2023/05/29 07:52:14;;;;;;;18.77;4.80;;;;;;;16.10;69.55;100395.31;5007157;28;20021;-78
2023/05/29 07:54:40;;;;;;;;;;;;;;;15.02;70.75;100218.66;5024979;28;20048;-77
2023/05/29 07:57:09;;;;;;;20.77;4.18;;;;;;;16.29;72.70;100867.75;5025821;28;19942;-78
2023/05/29 07:59:35;;;;;;;20.67;3.70;;;;;;;17.20;70.33;100809.06;5032325;28;20036;-77
2023/05/29 08:02:03;;;;;;;19.33;5.28;;;;;;;17.38;69.47;100664.63;5024339;28;20037;-78
2023/05/29 08:04:48;;;;;;;19.65;5.18;;;;;;;17.48;67.72;100481.50;5041413;28;20040;-78
2023/05/29 08:07:14;;;;;;;14.23;3.73;;;;;;;17.74;66.94;100464.34;5042164;28;20480;-78
2023/05/29 08:09:39;;;;;;;15.83;4.30;;;;;;;17.43;67.65;100463.25;4995726;28;20063;-77
2023/05/29 08:12:06;;;;;;;14.13;3.78;;;;;;;17.71;65.45;100298.22;5042283;28;20024;-78
2023/05/29 08:14:31;;;;;;;18.05;3.97;;;;;;;17.02;65.65;100150.78;5027683;28;20336;-77
2023/05/29 08:16:58;;;;;;;;;;;;;;;16.86;65.46;100095.56;5026737;28;20085;-78
2023/05/29 08:19:24;;;;;;;18.17;3.80;;;;;;;17.27;65.81;100266.78;5036345;28;20422;-78
2023/05/29 08:21:49;;;;;;;16.73;3.80;;;;;;;17.00;64.48;100055.81;5028573;28;20033;-78
2023/05/29 08:24:14;;;;;;;16.97;3.23;;;;;;;17.17;63.88;100008.34;5029757;28;20753;-78
2023/05/29 08:26:40;;;;;;;15.03;3.17;;;;;;;17.70;64.95;100392.94;5028915;28;20120;-78
2023/05/29 08:29:05;;;;;;;18.00;3.97;;;;;;;17.94;63.65;100248.22;5030476;28;20307;-78
2023/05/29 08:31:31;;;;;;;13.83;3.00;;;;;;;16.62;62.85;99749.50;5047717;28;20472;-78
2023/05/29 08:33:56;;;;;;;17.27;3.60;;;;;;;17.25;62.90;100048.50;5012708;28;20459;-78
2023/05/29 08:36:22;;;;;;;18.40;4.17;;;;;;;17.91;64.38;100459.28;5026792;28;20041;-78
2023/05/29 08:38:50;;;;;;;15.47;3.27;;;;;;;18.35;60.55;100071.06;5029161;28;20037;-78
2023/05/29 08:41:42;;;;;;;11.95;4.30;;;;;;;17.86;60.08;99892.06;5019359;28;20280;-78
2023/05/29 08:44:07;;;;;;;12.50;3.10;;;;;;;18.40;61.58;100276.59;5031119;28;20499;-78
2023/05/29 08:46:33;;;;;;;17.17;3.33;;;;;;;18.85;59.82;100162.72;5025165;28;20026;-78
2023/05/29 08:49:01;;;;;;;13.68;3.33;;;;;;;19.00;58.99;100093.81;5044528;28;20171;-78
2023/05/29 08:51:32;;;;;;;10.43;3.22;;;;;;;18.99;59.60;100149.81;5032349;28;20485;-78
2023/05/29 08:53:57;;;;;;;17.48;3.83;;;;;;;19.40;58.92;100192.19;5025513;28;20124;-78
2023/05/29 08:56:23;;;;;;;14.43;3.63;;;;;;;19.75;58.26;100226.63;5034768;28;20108;-77
2023/05/29 08:58:48;;;;;;;14.60;3.53;;;;;;;19.04;56.00;99659.50;5031221;28;20458;-78
2023/05/29 09:01:14;;;;;;;16.80;4.53;;;;;;;19.04;57.34;99879.41;5032823;28;20025;-78
2023/05/29 09:03:41;;;;;;;13.70;3.35;;;;;;;19.43;57.43;100054.75;5029472;28;20044;-78
2023/05/29 09:06:08;;;;;;;10.82;3.47;;;;;;;18.95;55.85;99605.78;5048810;28;20036;-78
2023/05/29 09:08:34;;;;;;;10.25;2.92;;;;;;;19.03;56.70;99828.25;5014943;28;20029;-79
2023/05/29 09:11:00;;;;;;;14.40;3.08;;;;;;;19.32;55.17;99732.47;5029440;28;20033;-79
2023/05/29 09:13:28;;;;;;;12.40;3.78;;;;;;;19.15;54.82;99623.41;5030732;28;20036;-79
2023/05/29 09:15:58;;;;;;;8.40;2.58;;;;;;;19.59;53.81;99721.00;5047895;28;20037;-78
2023/05/29 09:18:28;;;;;;;15.95;3.58;;;;;;;19.31;54.10;99597.41;5014137;28;20029;-78
2023/05/29 09:20:53;;;;;;;13.00;2.90;;;;;;;19.92;54.74;99961.25;5030403;28;20024;-79
2023/05/29 09:23:18;;;;;;;9.00;3.00;;;;;;;20.71;52.56;99902.66;5046828;28;20071;-79
2023/05/29 09:25:44;;;;;;;7.47;2.17;;;;;;;20.35;52.13;99669.00;5029799;28;20459;-79
2023/05/29 09:28:09;;;;;;;7.27;2.60;;;;;;;20.74;51.22;99682.44;5029879;28;20095;-78
2023/05/29 09:30:37;;;;;;;9.23;2.63;;;;;;;20.52;50.35;99477.22;5048089;28;20025;-78
2023/05/29 09:33:04;;;;;;;8.05;2.20;;;;;;;19.87;51.27;99389.69;5042677;28;20322;-78
2023/05/29 09:35:47;;;;;;;9.80;2.38;;;;;;;21.10;51.47;99932.47;5032764;28;20020;-79
2023/05/29 09:38:15;;;;;;;8.23;2.20;;;;;;;21.83;49.57;99836.06;5045898;28;20044;-78
2023/05/29 09:40:41;;;;;;;8.52;2.90;;;;;;;21.97;50.24;99971.50;5045206;28;20130;-79
2023/05/29 09:43:16;;;;;;;8.57;2.80;;;;;;;21.85;49.41;99748.88;5046681;28;20057;-78
2023/05/29 09:45:43;;;;;;;7.13;2.45;;;;;;;22.01;48.75;99720.72;5034312;28;20033;-78
2023/05/29 09:48:23;;;;;;;7.60;2.42;;;;;;;22.72;48.06;99893.53;5035288;28;20020;-79
2023/05/29 09:50:48;;;;;;;8.85;2.80;;;;;;;21.62;46.67;99180.56;5051646;28;20060;-78
2023/05/29 09:53:24;;;;;;;5.70;2.13;;;;;;;21.48;46.98;99279.94;5031903;28;20105;-76
2023/05/29 09:55:50;;;;;;;;;;;;;;;21.78;47.32;99515.47;5033871;28;20073;-78
2023/05/29 09:58:19;;;;;;;6.68;1.98;;;;;;;21.76;47.02;99400.03;5013475;28;19940;-78
2023/05/29 10:00:47;;;;;;;6.38;1.90;;;;;;;21.76;44.54;99022.47;5029672;28;20395;-78
2023/05/29 10:03:12;;;;;;;7.70;1.90;;;;;;;21.89;43.77;99000.13;5029461;28;20028;-78
2023/05/29 10:05:39;;;;;;;8.73;2.63;;;;;;;21.53;44.26;98946.00;5029566;28;20041;-79
2023/05/29 10:08:08;;;;;;;8.48;2.90;;;;;;;21.91;43.93;99046.84;5029762;28;20052;-79
2023/05/29 10:10:35;;;;;;;7.40;2.13;;;;;;;22.40;43.59;99235.59;5047284;28;20029;-78
2023/05/29 10:13:03;;;;;;;7.35;2.58;;;;;;;22.22;43.11;99074.72;5036927;28;20033;-78
2023/05/29 10:15:30;;;;;;;8.90;2.58;;;;;;;22.02;43.42;99069.34;5029367;28;20064;-78
2023/05/29 10:18:04;;;;;;;9.40;2.75;;;;;;;22.25;43.84;99226.38;5028175;28;20506;-78
2023/05/29 10:20:32;;;;;;;8.40;2.85;;;;;;;22.41;44.87;99468.34;5029567;28;20037;-78
2023/05/29 10:23:00;;;;;;;9.73;3.63;;;;;;;22.60;43.91;99387.81;5022885;28;20079;-78
2023/05/29 10:25:28;;;;;;;6.82;2.20;;;;;;;22.75;43.99;99452.25;5030256;28;20087;-78
2023/05/29 10:27:56;;;;;;;8.80;3.35;;;;;;;22.95;44.15;99571.97;5030389;28;20029;-78
2023/05/29 10:30:28;;;;;;;8.00;2.25;;;;;;;22.99;44.16;99542.31;5047331;28;20025;-77
2023/05/29 10:33:23;;;;;;;9.23;2.83;;;;;;;23.22;42.81;99403.97;5036777;28;20052;-77
2023/05/29 10:36:01;;;;;;;11.77;2.75;;;;;;;23.36;43.08;99479.34;5029092;28;20048;-78
2023/05/29 10:38:26;;;;;;;6.70;2.47;;;;;;;23.50;43.10;99568.63;5029335;28;20112;-78
2023/05/29 10:40:52;;;;;;;7.20;2.03;;;;;;;23.65;42.27;99399.69;5029506;28;20434;-78
2023/05/29 10:43:46;;;;;;;10.83;2.77;;;;;;;23.96;41.83;99459.47;5027159;28;20048;-78
2023/05/29 10:46:12;;;;;;;10.60;2.75;;;;;;;24.47;41.96;99643.81;5011361;28;20045;-79
2023/05/29 10:48:40;;;;;;;8.30;2.30;;;;;;;23.73;41.67;99221.19;5029057;28;20029;-77
2023/05/29 10:51:10;;;;;;;10.30;3.08;;;;;;;23.54;41.79;99298.16;5019271;28;20029;-78
2023/05/29 10:53:40;;;;;;;7.97;2.55;;;;;;;23.69;41.46;99277.31;5028244;28;20021;-78
2023/05/29 10:56:08;;;;;;;7.70;2.00;;;;;;;23.70;40.72;99153.66;5036651;28;20025;-78
2023/05/29 10:58:33;;;;;;;7.75;2.22;;;;;;;23.38;40.83;99046.91;5028947;28;20017;-79
2023/05/29 11:00:59;;;;;;;7.57;2.20;;;;;;;23.80;40.46;99162.53;5046446;28;20488;-78
2023/05/29 11:03:30;;;;;;;9.10;2.13;;;;;;;22.48;40.67;98669.47;5028625;28;20275;-78
2023/05/29 11:06:10;;;;;;;7.00;2.17;;;;;;;23.29;40.03;98933.47;5028378;28;20318;-78
2023/05/29 11:08:46;;;;;;;6.60;2.40;;;;;;;23.25;40.69;98978.72;5046703;28;20064;-78
2023/05/29 11:11:14;;;;;;;7.55;2.67;;;;;;;22.98;39.75;98721.56;5028002;28;20110;-78
2023/05/29 11:13:44;;;;;;;6.70;2.45;;;;;;;23.25;39.24;98785.44;5046066;28;20028;-77
2023/05/29 11:16:13;;;;;;;7.47;2.42;;;;;;;23.32;39.52;98857.50;5046556;28;20025;-78
2023/05/29 11:18:42;;;;;;;8.02;2.00;;;;;;;23.42;40.21;99040.91;5046147;28;20021;-78
2023/05/29 11:21:23;;;;;;;8.73;2.10;;;;;;;23.75;39.54;99039.19;5046004;28;20133;-77
2023/05/29 11:23:52;;;;;;;7.75;2.65;;;;;;;23.60;39.43;98944.81;5011632;28;20144;-78
2023/05/29 11:26:19;;;;;;;7.65;2.20;;;;;;;23.74;39.73;99124.72;5027961;28;20028;-78
2023/05/29 11:28:45;;;;;;;7.97;2.55;;;;;;;23.96;39.46;99097.78;5045036;28;20086;-77